Time;durP1;ratioP1;P1;durP2;ratioP2;P2;SDS_P1;SDS_P2;PMS_P1;PMS_P2;Temp;Humidity;BMP_temperature;BMP_pressure;BME280_temperature;BME280_humidity;BME280_pressure;Samples;Min_cycle;Max_cycle;Signal;HPM_P1;HPM_P2
2021/03/06 00:04:35;;;;;;;0.80;0.80;;;;;;;-0.82;61.74;98094.44;299395;206;63004;-58
2021/03/06 00:09:36;;;;;;;0.80;0.80;;;;;;;-0.79;60.70;98088.72;299395;204;63009;-60
2021/03/06 00:14:37;;;;;;;0.90;0.90;;;;;;;-0.75;60.69;98089.97;299395;216;63005;-58
2021/03/06 00:19:38;;;;;;;0.80;0.80;;;;;;;-0.72;60.76;98094.94;299395;259;63008;-58
2021/03/06 00:24:39;;;;;;;0.90;0.90;;;;;;;-0.80;61.96;98103.06;299395;196;63004;-59
2021/03/06 00:29:40;;;;;;;0.90;0.90;;;;;;;-0.85;61.28;98091.31;299395;253;63009;-58
2021/03/06 00:34:42;;;;;;;0.90;0.90;;;;;;;-0.93;61.40;98099.44;299394;208;63005;-58
2021/03/06 00:39:42;;;;;;;0.80;0.80;;;;;;;-0.85;60.86;98089.47;299395;397;63009;-58
2021/03/06 00:44:43;;;;;;;0.80;0.80;;;;;;;-0.82;60.59;98088.28;299395;230;63005;-58
2021/03/06 00:49:44;;;;;;;0.80;0.80;;;;;;;-0.85;60.38;98088.66;299395;198;63009;-58
2021/03/06 00:54:47;;;;;;;0.80;0.80;;;;;;;-0.97;60.30;98091.00;299395;229;63004;-59
2021/03/06 00:59:48;;;;;;;0.80;0.80;;;;;;;-1.09;61.46;98098.69;299395;309;63009;-58
2021/03/06 01:04:49;;;;;;;0.80;0.80;;;;;;;-1.16;62.80;98095.13;299395;211;63005;-59
2021/03/06 01:09:50;;;;;;;0.80;0.80;;;;;;;-1.12;63.63;98098.22;299395;218;63009;-58
2021/03/06 01:14:52;;;;;;;0.90;0.90;;;;;;;-1.20;63.57;98095.69;299395;223;63005;-58
2021/03/06 01:19:53;;;;;;;0.80;0.80;;;;;;;-1.16;64.30;98087.13;299395;227;63009;-58
2021/03/06 01:24:54;;;;;;;0.80;0.80;;;;;;;-1.30;64.00;98092.50;299395;202;63004;-59
2021/03/06 01:29:55;;;;;;;0.80;0.80;;;;;;;-1.45;63.89;98090.72;299394;238;64013;-58
2021/03/06 01:34:56;;;;;;;0.93;0.93;;;;;;;-1.55;64.95;98087.50;299395;207;63005;-59
2021/03/06 01:39:57;;;;;;;0.90;0.90;;;;;;;-1.61;64.89;98088.25;299395;211;63009;-58
2021/03/06 01:44:58;;;;;;;0.80;0.80;;;;;;;-1.64;64.19;98087.81;299395;204;63005;-59
2021/03/06 01:49:59;;;;;;;0.80;0.80;;;;;;;-1.57;62.92;98086.06;299395;241;63009;-59
2021/03/06 01:55:01;;;;;;;0.88;0.88;;;;;;;-1.49;63.51;98080.63;299395;222;63004;-59
2021/03/06 02:00:05;;;;;;;0.80;0.80;;;;;;;-1.56;62.62;98075.22;299395;225;63009;-59
2021/03/06 02:05:07;;;;;;;0.90;0.90;;;;;;;-1.46;63.12;98065.09;299417;204;63005;-58
2021/03/06 02:10:11;;;;;;;0.90;0.90;;;;;;;-1.49;63.81;98073.47;299395;220;63009;-58
2021/03/06 02:15:30;;;;;;;0.80;0.80;;;;;;;-1.52;63.30;98065.84;299395;233;63005;-58
2021/03/06 02:21:05;;;;;;;0.80;0.80;;;;;;;-1.65;63.34;98060.38;299395;204;63009;-59
2021/03/06 02:26:50;;;;;;;0.90;0.90;;;;;;;-1.79;63.91;98069.22;299377;233;125013;-59
2021/03/06 02:31:54;;;;;;;0.90;0.90;;;;;;;-1.81;63.66;98066.75;299395;286;63004;-60
2021/03/06 02:37:01;;;;;;;0.80;0.80;;;;;;;-1.79;63.76;98047.94;299395;392;63000;-60
2021/03/06 02:42:06;;;;;;;0.80;0.80;;;;;;;-1.78;63.83;98050.41;299395;238;63005;-59
2021/03/06 02:47:06;;;;;;;;;;;;;;;-1.80;64.21;98056.94;299996;982;6000;-60
2021/03/06 02:52:07;;;;;;;0.80;0.80;;;;;;;-1.83;62.01;98044.00;299400;331;63000;-60
2021/03/06 02:57:08;;;;;;;0.80;0.80;;;;;;;-1.94;63.06;98060.41;299395;223;63005;-60
2021/03/06 03:02:34;;;;;;;0.80;0.80;;;;;;;-2.11;63.91;98060.62;299395;204;63000;-54
2021/03/06 03:08:17;;;;;;;0.80;0.80;;;;;;;-2.09;64.50;98063.94;299417;214;63005;-60
2021/03/06 03:13:41;;;;;;;0.90;0.90;;;;;;;-2.14;65.07;98057.50;299395;198;63013;-60
2021/03/06 03:18:48;;;;;;;0.90;0.90;;;;;;;-2.12;64.26;98052.84;299395;246;63019;-60
2021/03/06 03:24:16;;;;;;;0.80;0.80;;;;;;;-2.15;64.48;98056.69;299395;280;63000;-60
2021/03/06 03:29:18;;;;;;;0.80;0.80;;;;;;;-2.17;64.32;98050.72;299395;211;63005;-62
2021/03/06 03:34:22;;;;;;;0.90;0.90;;;;;;;-2.34;65.26;98053.72;299395;202;63001;-62
2021/03/06 03:39:23;;;;;;;0.90;0.90;;;;;;;-2.31;66.22;98054.19;299395;882;63004;-61
2021/03/06 03:44:24;;;;;;;0.90;0.90;;;;;;;-2.32;66.70;98060.53;299395;233;63000;-53
2021/03/06 03:49:26;;;;;;;0.80;0.80;;;;;;;-2.37;66.73;98070.88;299395;215;63005;-63
2021/03/06 03:54:27;;;;;;;0.90;0.90;;;;;;;-2.51;67.18;98063.72;299395;415;63000;-53
2021/03/06 03:59:31;;;;;;;0.90;0.90;;;;;;;-2.62;67.51;98069.47;299395;911;63005;-62
2021/03/06 04:04:33;;;;;;;1.35;1.35;;;;;;;-2.62;67.17;98072.94;299377;198;125001;-54
2021/03/06 04:09:34;;;;;;;0.90;0.90;;;;;;;-2.81;66.93;98076.97;299395;245;63004;-62
2021/03/06 04:14:36;;;;;;;0.90;0.90;;;;;;;-2.83;68.08;98078.97;299395;429;63000;-62
2021/03/06 04:19:40;;;;;;;0.90;0.90;;;;;;;-2.74;67.79;98090.31;299395;197;63005;-62
2021/03/06 04:24:42;;;;;;;0.90;0.90;;;;;;;-2.76;67.71;98092.34;299417;453;63000;-62
2021/03/06 04:29:43;;;;;;;0.90;0.90;;;;;;;-2.81;68.05;98094.72;299395;474;63005;-63
2021/03/06 04:34:44;;;;;;;0.90;0.90;;;;;;;-2.81;69.15;98090.25;299395;585;63000;-61
2021/03/06 04:39:45;;;;;;;0.85;0.85;;;;;;;-2.91;69.14;98091.47;299395;414;63004;-63
2021/03/06 04:44:48;;;;;;;0.90;0.90;;;;;;;-2.92;69.35;98093.31;299395;238;63013;-61
2021/03/06 04:49:50;;;;;;;0.90;0.90;;;;;;;-2.94;69.79;98089.19;299395;197;63005;-61
2021/03/06 04:54:51;;;;;;;0.90;0.90;;;;;;;-2.97;69.37;98093.00;299395;520;63008;-63
2021/03/06 04:59:55;;;;;;;0.90;0.90;;;;;;;-2.99;68.85;98092.38;299395;593;63004;-62
2021/03/06 05:04:58;;;;;;;0.90;0.90;;;;;;;-3.05;68.68;98093.91;299417;205;63000;-54
2021/03/06 05:09:59;;;;;;;0.90;0.90;;;;;;;-3.13;69.07;98090.50;299395;605;63004;-61
2021/03/06 05:15:00;;;;;;;0.90;0.90;;;;;;;-3.26;68.94;98090.25;299395;213;63011;-62
2021/03/06 05:20:02;;;;;;;0.90;0.90;;;;;;;-3.22;69.34;98096.84;299395;577;63005;-62
2021/03/06 05:25:04;;;;;;;0.90;0.90;;;;;;;-3.29;68.95;98095.91;299395;337;63000;-63
2021/03/06 05:30:06;;;;;;;1.00;1.00;;;;;;;-3.22;68.49;98096.84;299395;218;63004;-62
2021/03/06 05:35:08;;;;;;;0.90;0.90;;;;;;;-3.21;68.26;98101.16;299395;198;63000;-64
2021/03/06 05:40:10;;;;;;;0.90;0.90;;;;;;;-3.20;68.37;98097.50;299395;218;63018;-66
2021/03/06 05:45:11;;;;;;;0.90;0.90;;;;;;;-3.16;68.41;98102.28;299395;659;63000;-65
2021/03/06 05:50:15;;;;;;;0.90;0.90;;;;;;;-3.18;67.65;98101.66;299395;203;63005;-64
2021/03/06 05:55:18;;;;;;;0.90;0.90;;;;;;;-3.20;67.93;98095.69;299417;503;63005;-65
2021/03/06 06:00:21;;;;;;;0.95;0.95;;;;;;;-3.29;68.20;98088.78;299395;555;63009;-65
2021/03/06 06:05:25;;;;;;;0.90;0.90;;;;;;;-3.25;68.48;98091.91;299395;227;63005;-65
2021/03/06 06:10:25;;;;;;;0.90;0.90;;;;;;;-3.24;67.67;98082.94;299395;444;63009;-66
2021/03/06 06:15:29;;;;;;;0.90;0.90;;;;;;;-3.35;68.70;98096.59;299395;749;63004;-65
2021/03/06 06:20:30;;;;;;;1.00;1.00;;;;;;;-3.38;68.48;98092.47;299395;214;63018;-65
2021/03/06 06:25:32;;;;;;;0.90;0.90;;;;;;;-3.31;68.46;98105.88;299395;214;63005;-57
2021/03/06 06:30:33;;;;;;;0.90;0.90;;;;;;;-3.26;67.80;98096.37;299395;218;63009;-67
2021/03/06 06:35:41;;;;;;;0.90;0.90;;;;;;;-3.16;66.58;98101.47;299395;220;63005;-67
2021/03/06 06:40:54;;;;;;;0.90;0.90;;;;;;;-3.13;66.53;98107.25;299395;617;63009;-57
2021/03/06 06:45:55;;;;;;;0.90;0.90;;;;;;;-3.04;66.92;98105.34;299395;384;63004;-67
2021/03/06 06:51:09;;;;;;;1.00;1.00;;;;;;;-2.96;66.19;98107.94;299395;546;63009;-57
2021/03/06 06:56:25;;;;;;;0.90;0.90;;;;;;;-3.02;66.01;98100.69;299395;197;63005;-58
2021/03/06 07:01:34;;;;;;;0.90;0.90;;;;;;;-3.05;65.51;98109.00;299395;916;63008;-56
2021/03/06 07:06:36;;;;;;;1.00;1.00;;;;;;;-3.03;65.82;98117.63;299395;295;63004;-67
2021/03/06 07:11:38;;;;;;;2.33;2.22;;;;;;;-2.94;65.98;98115.72;299395;205;63009;-67
2021/03/06 07:16:59;;;;;;;0.90;0.90;;;;;;;-2.74;66.44;98117.72;299395;221;63004;-66
2021/03/06 07:22:01;;;;;;;0.90;0.90;;;;;;;-2.59;66.14;98130.22;299395;218;63009;-67
2021/03/06 07:27:03;;;;;;;0.95;0.95;;;;;;;-2.48;66.80;98140.44;299395;197;63005;-67
2021/03/06 07:32:07;;;;;;;0.90;0.90;;;;;;;-2.28;65.04;98138.91;299395;201;63009;-67
2021/03/06 07:37:09;;;;;;;0.90;0.90;;;;;;;-2.03;64.97;98145.62;299417;220;63004;-67
2021/03/06 07:42:28;;;;;;;0.90;0.90;;;;;;;-1.96;65.01;98147.56;299395;565;63009;-66
2021/03/06 07:47:36;;;;;;;0.90;0.90;;;;;;;-1.89;65.22;98153.78;299395;204;63005;-66
2021/03/06 07:52:39;;;;;;;0.90;0.90;;;;;;;-1.58;64.37;98146.44;299395;303;63009;-61
2021/03/06 07:58:17;;;;;;;0.80;0.80;;;;;;;-1.23;63.15;98144.81;299395;222;63005;-66
2021/03/06 08:03:50;;;;;;;0.90;0.90;;;;;;;-0.94;62.48;98151.88;299395;197;63005;-63
2021/03/06 08:09:16;;;;;;;0.90;0.90;;;;;;;-0.69;61.05;98147.81;299395;524;63008;-64
2021/03/06 08:14:32;;;;;;;0.90;0.90;;;;;;;-0.27;60.55;98140.81;299395;323;63004;-64
2021/03/06 08:19:34;;;;;;;0.90;0.90;;;;;;;0.10;59.43;98144.16;299395;206;63021;-57
2021/03/06 08:24:36;;;;;;;0.90;0.90;;;;;;;0.46;56.67;98142.09;299395;222;63005;-64
2021/03/06 08:29:39;;;;;;;0.80;0.80;;;;;;;0.71;55.59;98144.25;299395;197;63009;-64
2021/03/06 08:34:46;;;;;;;0.80;0.80;;;;;;;0.92;56.33;98146.81;299395;365;63005;-64
2021/03/06 08:39:59;;;;;;;0.80;0.80;;;;;;;1.30;54.80;98134.56;299395;218;63009;-64
2021/03/06 08:45:21;;;;;;;0.80;0.80;;;;;;;1.56;54.46;98139.09;299395;231;63011;-63
2021/03/06 08:50:24;;;;;;;0.80;0.80;;;;;;;1.80;52.91;98140.31;299395;224;63021;-64
2021/03/06 08:55:28;;;;;;;0.80;0.80;;;;;;;1.82;53.51;98135.59;299395;239;63005;-63
2021/03/06 09:00:51;;;;;;;0.80;0.80;;;;;;;1.95;50.23;98130.25;299417;202;63008;-65
2021/03/06 09:05:54;;;;;;;0.80;0.80;;;;;;;2.22;47.61;98135.53;299395;219;63004;-64
2021/03/06 09:11:00;;;;;;;0.80;0.80;;;;;;;2.63;48.20;98141.41;299395;226;63009;-53
2021/03/06 09:16:04;;;;;;;0.80;0.80;;;;;;;2.94;45.43;98129.09;299395;203;63005;-61
2021/03/06 09:21:15;;;;;;;0.80;0.80;;;;;;;3.17;43.64;98121.34;299395;285;63017;-53
2021/03/06 09:26:19;;;;;;;1.33;1.33;;;;;;;3.23;44.47;98125.03;299395;254;63005;-52
2021/03/06 09:31:30;;;;;;;0.70;0.70;;;;;;;3.29;42.48;98116.94;299417;197;63009;-60
2021/03/06 09:36:32;;;;;;;0.70;0.70;;;;;;;3.00;45.49;98125.56;299395;234;63004;-61
2021/03/06 09:41:38;;;;;;;0.90;0.90;;;;;;;2.94;43.21;98116.53;299395;209;63009;-60
2021/03/06 09:46:39;;;;;;;31.70;17.67;;;;;;;2.80;45.64;98122.16;299385;274;65005;-52
2021/03/06 09:51:57;;;;;;;0.80;0.80;;;;;;;3.02;43.28;98112.78;299395;215;63009;-54
2021/03/06 09:57:01;;;;;;;0.80;0.80;;;;;;;2.96;43.35;98113.63;299395;207;63005;-56
2021/03/06 10:02:04;;;;;;;0.80;0.80;;;;;;;3.09;43.51;98118.94;299417;202;63009;-61
2021/03/06 10:07:11;;;;;;;0.70;0.70;;;;;;;3.19;43.10;98113.91;299395;222;63010;-53
2021/03/06 10:12:16;;;;;;;0.73;0.73;;;;;;;3.47;42.71;98107.31;299395;222;63009;-58
2021/03/06 10:17:24;;;;;;;0.70;0.70;;;;;;;3.57;42.40;98105.78;299395;233;63005;-61
2021/03/06 10:22:26;;;;;;;0.70;0.70;;;;;;;3.80;41.54;98099.03;299395;207;63008;-59
2021/03/06 10:27:55;;;;;;;0.80;0.80;;;;;;;3.49;41.71;98105.22;299395;261;63004;-60
2021/03/06 10:33:04;;;;;;;0.88;0.88;;;;;;;3.72;42.45;98102.78;299395;242;63009;-61
2021/03/06 10:38:08;;;;;;;0.80;0.80;;;;;;;3.74;40.53;98092.66;299395;232;63004;-54
2021/03/06 10:43:10;;;;;;;0.70;0.70;;;;;;;3.77;41.12;98100.28;299418;222;63009;-56
2021/03/06 10:48:12;;;;;;;0.70;0.70;;;;;;;3.69;42.04;98100.53;299374;254;63005;-58
2021/03/06 10:53:18;;;;;;;0.80;0.80;;;;;;;3.66;41.27;98098.28;299396;208;63008;-53
2021/03/06 10:58:20;;;;;;;0.80;0.80;;;;;;;3.69;41.24;98095.19;299396;214;63004;-59
2021/03/06 11:03:21;;;;;;;0.80;0.80;;;;;;;3.73;41.73;98103.63;299396;253;63009;-59
2021/03/06 11:08:22;;;;;;;0.80;0.80;;;;;;;3.77;41.23;98100.28;299396;252;63005;-60
2021/03/06 11:13:36;;;;;;;0.80;0.80;;;;;;;3.88;41.01;98093.34;299396;244;63009;-53
2021/03/06 11:18:39;;;;;;;0.80;0.80;;;;;;;3.91;37.36;98079.47;299395;239;64009;-59
2021/03/06 11:23:41;;;;;;;0.73;0.73;;;;;;;3.79;39.71;98076.72;299396;198;63009;-57
2021/03/06 11:28:45;;;;;;;0.70;0.70;;;;;;;3.99;39.40;98080.03;299397;213;63004;-60
2021/03/06 11:33:46;;;;;;;0.70;0.70;;;;;;;3.84;38.76;98078.72;299419;285;63009;-54
2021/03/06 11:38:47;;;;;;;0.73;0.73;;;;;;;3.97;39.87;98067.84;299396;219;63005;-59
2021/03/06 11:43:48;;;;;;;0.80;0.80;;;;;;;4.17;36.46;98065.78;299396;202;63009;-55
2021/03/06 11:48:49;;;;;;;0.80;0.80;;;;;;;4.23;36.70;98056.81;299396;263;63004;-54
2021/03/06 11:53:50;;;;;;;0.70;0.70;;;;;;;4.25;40.67;98056.59;299396;225;63009;-60
2021/03/06 11:58:51;;;;;;;0.70;0.70;;;;;;;4.30;39.22;98062.12;299396;275;63004;-59
2021/03/06 12:03:53;;;;;;;0.80;0.80;;;;;;;4.24;39.60;98049.59;299396;217;63009;-58
2021/03/06 12:08:56;;;;;;;0.70;0.70;;;;;;;4.33;40.03;98029.44;299396;198;63005;-57
2021/03/06 12:13:58;;;;;;;0.77;0.77;;;;;;;4.58;38.90;98032.84;299396;223;63008;-54
2021/03/06 12:18:59;;;;;;;0.70;0.70;;;;;;;4.45;38.73;98027.66;299396;289;63004;-55
2021/03/06 12:24:00;;;;;;;0.70;0.70;;;;;;;4.63;39.17;98014.16;299396;223;64009;-58
2021/03/06 12:29:01;;;;;;;0.70;0.70;;;;;;;4.65;37.96;98001.31;299395;256;64008;-58
2021/03/06 12:34:01;;;;;;;0.80;0.80;;;;;;;4.58;38.17;98005.94;299395;212;63009;-59
2021/03/06 12:39:07;;;;;;;0.70;0.70;;;;;;;4.58;36.93;97999.75;299395;199;63005;-60
2021/03/06 12:44:09;;;;;;;0.70;0.70;;;;;;;4.53;37.38;97996.94;299395;227;63008;-60
2021/03/06 12:49:11;;;;;;;0.70;0.70;;;;;;;4.80;36.59;97981.28;299395;199;63004;-60
2021/03/06 12:54:13;;;;;;;0.70;0.70;;;;;;;4.91;36.80;97977.78;299395;210;63009;-62
2021/03/06 12:59:14;;;;;;;0.70;0.70;;;;;;;4.97;35.86;97974.16;299395;206;63004;-60
2021/03/06 13:04:15;;;;;;;0.80;0.80;;;;;;;5.13;36.77;97970.81;299395;229;63009;-61
2021/03/06 13:09:16;;;;;;;0.70;0.70;;;;;;;5.29;35.65;97964.75;299394;228;63005;-60
2021/03/06 13:14:17;;;;;;;0.70;0.70;;;;;;;5.14;34.91;97955.50;299395;284;63009;-61
2021/03/06 13:19:18;;;;;;;0.70;0.70;;;;;;;5.10;35.91;97955.16;299395;309;63004;-61
2021/03/06 13:24:19;;;;;;;0.70;0.70;;;;;;;5.20;35.37;97946.50;299395;223;63005;-60
2021/03/06 13:29:20;;;;;;;0.70;0.70;;;;;;;5.21;35.82;97953.50;299395;243;63011;-60
2021/03/06 13:34:21;;;;;;;0.70;0.70;;;;;;;5.33;34.78;97936.31;299395;233;63016;-57
2021/03/06 13:39:21;;;;;;;1.00;1.00;;;;;;;5.53;33.60;97940.53;299395;196;63005;-58
2021/03/06 13:44:23;;;;;;;0.70;0.70;;;;;;;5.53;34.62;97945.94;299395;233;63008;-54
2021/03/06 13:49:24;;;;;;;0.70;0.70;;;;;;;5.55;32.88;97941.09;299395;218;63004;-55
2021/03/06 13:54:25;;;;;;;0.70;0.70;;;;;;;5.40;32.56;97930.81;299395;298;63009;-57
2021/03/06 13:59:26;;;;;;;0.70;0.70;;;;;;;5.39;33.01;97943.47;299395;250;63004;-55
2021/03/06 14:04:33;;;;;;;0.70;0.70;;;;;;;5.47;33.23;97928.03;299395;196;63009;-57
2021/03/06 14:09:34;;;;;;;0.70;0.70;;;;;;;5.65;32.64;97936.75;299395;305;63005;-58
2021/03/06 14:14:35;;;;;;;0.70;0.70;;;;;;;5.61;32.28;97924.00;299395;280;63009;-54
2021/03/06 14:19:36;;;;;;;0.70;0.70;;;;;;;5.61;32.35;97918.63;299395;243;63007;-54
2021/03/06 14:24:43;;;;;;;0.70;0.70;;;;;;;5.60;33.15;97919.69;299395;219;63021;-55
2021/03/06 14:29:44;;;;;;;0.70;0.70;;;;;;;5.68;32.88;97909.38;299395;289;63005;-53
2021/03/06 14:34:45;;;;;;;0.70;0.70;;;;;;;5.73;33.48;97893.31;299394;251;64013;-59
2021/03/06 14:39:46;;;;;;;0.70;0.70;;;;;;;5.77;33.18;97899.06;299395;316;63005;-57
2021/03/06 14:44:48;;;;;;;0.70;0.70;;;;;;;5.63;32.37;97889.59;299395;273;63009;-57
2021/03/06 14:49:49;;;;;;;0.70;0.70;;;;;;;5.54;31.49;97880.25;299395;202;63004;-57
2021/03/06 14:54:50;;;;;;;0.70;0.70;;;;;;;5.68;32.38;97876.25;299395;202;63014;-69
2021/03/06 14:59:50;;;;;;;0.70;0.70;;;;;;;5.71;31.96;97859.63;299395;231;63005;-57
2021/03/06 15:04:52;;;;;;;0.70;0.70;;;;;;;5.68;32.41;97868.16;299395;368;63009;-57
2021/03/06 15:09:53;;;;;;;0.70;0.70;;;;;;;5.72;33.08;97864.75;299395;335;63005;-57
2021/03/06 15:14:55;;;;;;;0.70;0.70;;;;;;;5.82;32.99;97858.78;299395;293;63009;-60
2021/03/06 15:19:56;;;;;;;0.70;0.70;;;;;;;5.87;33.38;97847.28;299395;294;63004;-57
2021/03/06 15:24:57;;;;;;;0.70;0.70;;;;;;;6.10;31.89;97833.75;299395;248;63009;-57
2021/03/06 15:29:58;;;;;;;0.70;0.70;;;;;;;6.17;31.43;97825.53;299395;305;63010;-58
2021/03/06 15:35:00;;;;;;;0.70;0.70;;;;;;;6.17;30.28;97814.75;299395;300;63009;-57
2021/03/06 15:40:02;;;;;;;0.70;0.70;;;;;;;6.33;31.61;97819.31;299395;224;63005;-57
2021/03/06 15:45:04;;;;;;;0.70;0.70;;;;;;;6.32;31.90;97806.91;299395;235;63009;-57
2021/03/06 15:50:08;;;;;;;0.70;0.70;;;;;;;6.44;31.83;97813.06;299395;196;63004;-57
2021/03/06 15:55:12;;;;;;;0.70;0.70;;;;;;;6.52;31.37;97806.44;299395;291;63009;-57
2021/03/06 16:00:14;;;;;;;0.70;0.70;;;;;;;6.64;31.21;97804.47;299417;215;63005;-57
2021/03/06 16:05:15;;;;;;;0.70;0.70;;;;;;;6.54;31.13;97797.06;299395;229;63008;-58
2021/03/06 16:10:17;;;;;;;0.70;0.70;;;;;;;6.48;31.20;97803.44;299395;203;63008;-58
2021/03/06 16:15:18;;;;;;;0.70;0.70;;;;;;;6.43;31.65;97814.13;299395;210;63009;-57
2021/03/06 16:20:19;;;;;;;0.70;0.70;;;;;;;6.28;31.81;97808.44;299395;198;63004;-58
2021/03/06 16:25:22;;;;;;;0.93;0.93;;;;;;;5.93;33.07;97812.13;299395;251;63009;-58
2021/03/06 16:30:24;;;;;;;0.70;0.70;;;;;;;5.60;33.37;97809.28;299395;203;63005;-59
2021/03/06 16:35:25;;;;;;;0.70;0.70;;;;;;;5.23;34.18;97820.38;299395;366;63008;-57
2021/03/06 16:40:26;;;;;;;0.80;0.80;;;;;;;5.03;35.47;97826.13;299395;286;63004;-57
2021/03/06 16:45:28;;;;;;;0.70;0.70;;;;;;;4.83;35.99;97830.22;299395;355;63009;-57
2021/03/06 16:50:30;;;;;;;0.70;0.70;;;;;;;4.63;35.04;97825.16;299395;227;63004;-57
2021/03/06 16:55:31;;;;;;;0.70;0.70;;;;;;;4.47;35.59;97831.25;299395;197;63009;-58
2021/03/06 17:00:32;;;;;;;0.70;0.70;;;;;;;4.30;34.82;97826.50;299395;292;63005;-57
2021/03/06 17:05:34;;;;;;;0.70;0.70;;;;;;;4.11;37.02;97838.38;299395;267;63013;-58
2021/03/06 17:10:36;;;;;;;0.70;0.70;;;;;;;3.96;38.21;97846.03;299395;231;63004;-57
2021/03/06 17:15:37;;;;;;;0.70;0.70;;;;;;;3.77;38.27;97858.69;299395;351;63009;-59
2021/03/06 17:20:39;;;;;;;0.70;0.70;;;;;;;3.58;37.06;97859.72;299395;331;63005;-58
2021/03/06 17:25:40;;;;;;;0.70;0.70;;;;;;;3.49;38.69;97863.75;299395;322;63028;-58
2021/03/06 17:30:42;;;;;;;0.80;0.80;;;;;;;3.40;40.30;97868.59;299395;196;63005;-58
2021/03/06 17:35:42;;;;;;;0.70;0.70;;;;;;;3.29;40.21;97872.84;299395;211;63009;-58
2021/03/06 17:40:44;;;;;;;0.70;0.70;;;;;;;3.11;42.39;97880.06;299395;196;63004;-58
2021/03/06 17:45:45;;;;;;;0.80;0.80;;;;;;;3.00;42.42;97878.91;299395;231;63009;-59
2021/03/06 17:50:46;;;;;;;0.70;0.70;;;;;;;2.93;43.12;97888.88;299395;250;63005;-58
2021/03/06 17:55:47;;;;;;;0.70;0.70;;;;;;;2.84;43.24;97882.13;299395;203;63009;-57
2021/03/06 18:00:49;;;;;;;0.70;0.70;;;;;;;2.69;44.45;97883.31;299395;208;63005;-57
2021/03/06 18:05:50;;;;;;;0.80;0.80;;;;;;;2.54;44.78;97890.81;299395;204;63019;-56
2021/03/06 18:10:57;;;;;;;0.80;0.80;;;;;;;2.49;41.28;97877.25;299395;228;63004;-58
2021/03/06 18:15:59;;;;;;;0.80;0.80;;;;;;;2.37;44.15;97868.28;299395;202;63009;-58
2021/03/06 18:21:00;;;;;;;0.80;0.80;;;;;;;2.20;44.52;97872.50;299395;233;63005;-58
2021/03/06 18:26:01;;;;;;;0.80;0.80;;;;;;;2.12;43.75;97875.44;299395;226;63009;-58
2021/03/06 18:31:02;;;;;;;0.80;0.80;;;;;;;2.11;43.97;97873.78;299395;255;63005;-57
2021/03/06 18:36:04;;;;;;;0.80;0.80;;;;;;;1.99;45.41;97877.19;299395;233;63009;-55
2021/03/06 18:41:06;;;;;;;0.80;0.80;;;;;;;1.79;45.27;97881.78;299395;203;63004;-57
2021/03/06 18:46:07;;;;;;;0.80;0.80;;;;;;;1.66;45.34;97887.22;299395;240;63009;-56
2021/03/06 18:51:08;;;;;;;0.80;0.80;;;;;;;1.52;46.27;97881.06;299395;222;63005;-54
2021/03/06 18:56:10;;;;;;;0.80;0.80;;;;;;;1.41;46.36;97879.03;299395;211;63009;-57
2021/03/06 19:01:15;;;;;;;0.70;0.70;;;;;;;1.32;46.94;97873.13;299395;237;63005;-58
2021/03/06 19:06:16;;;;;;;0.80;0.80;;;;;;;1.31;46.76;97874.16;299417;231;63009;-54
2021/03/06 19:11:18;;;;;;;0.80;0.80;;;;;;;1.04;47.21;97872.56;299395;197;63004;-57
2021/03/06 19:16:23;;;;;;;0.80;0.80;;;;;;;0.88;48.29;97873.00;299395;198;63009;-57
2021/03/06 19:21:24;;;;;;;0.80;0.80;;;;;;;0.76;48.07;97863.97;299417;358;63005;-57
2021/03/06 19:26:25;;;;;;;0.80;0.80;;;;;;;0.65;48.66;97863.59;299395;196;63008;-59
2021/03/06 19:31:28;;;;;;;0.80;0.80;;;;;;;0.65;48.82;97862.75;299395;213;63004;-58
2021/03/06 19:36:29;;;;;;;0.80;0.80;;;;;;;0.61;48.22;97857.00;299395;205;63009;-58
2021/03/06 19:41:31;;;;;;;0.80;0.80;;;;;;;0.59;48.71;97853.72;299395;264;63008;-58
2021/03/06 19:46:34;;;;;;;0.80;0.80;;;;;;;0.52;48.77;97858.22;299395;263;63009;-58
2021/03/06 19:51:35;;;;;;;0.85;0.85;;;;;;;0.34;49.78;97858.03;299395;232;63005;-58
2021/03/06 19:56:36;;;;;;;0.80;0.80;;;;;;;0.34;49.34;97850.03;299395;264;63008;-59
2021/03/06 20:01:38;;;;;;;0.80;0.80;;;;;;;0.26;50.11;97850.22;299395;223;63004;-55
2021/03/06 20:06:39;;;;;;;0.90;0.90;;;;;;;0.18;50.05;97848.56;299395;205;63005;-58
2021/03/06 20:11:41;;;;;;;0.80;0.80;;;;;;;0.23;49.96;97848.78;299395;220;63004;-57
2021/03/06 20:16:42;;;;;;;0.80;0.80;;;;;;;0.33;48.34;97853.72;299395;208;63009;-58
2021/03/06 20:21:43;;;;;;;0.80;0.80;;;;;;;0.24;49.56;97860.28;299395;231;63005;-57
2021/03/06 20:26:43;;;;;;;0.80;0.80;;;;;;;0.32;49.53;97844.06;299395;205;63008;-58
2021/03/06 20:31:45;;;;;;;0.80;0.80;;;;;;;0.27;50.01;97859.87;299395;269;63010;-58
2021/03/06 20:36:46;;;;;;;0.88;0.88;;;;;;;0.29;49.65;97857.81;299394;211;64013;-57
2021/03/06 20:41:49;;;;;;;0.80;0.80;;;;;;;0.39;49.37;97857.38;299395;245;63005;-57
2021/03/06 20:46:50;;;;;;;0.80;0.80;;;;;;;0.36;49.32;97858.63;299395;293;63009;-57
2021/03/06 20:51:51;;;;;;;0.80;0.80;;;;;;;0.38;49.08;97855.75;299395;239;63005;-58
2021/03/06 20:56:52;;;;;;;0.80;0.80;;;;;;;0.36;49.82;97849.78;299395;274;63009;-57
2021/03/06 21:01:53;;;;;;;0.80;0.80;;;;;;;0.40;49.61;97854.53;299395;235;63004;-57
2021/03/06 21:06:55;;;;;;;0.80;0.80;;;;;;;0.41;49.06;97845.47;299395;221;63009;-54
2021/03/06 21:11:59;;;;;;;0.80;0.80;;;;;;;0.34;49.34;97850.03;299395;225;63012;-57
2021/03/06 21:17:00;;;;;;;0.80;0.80;;;;;;;0.31;49.04;97845.09;299377;318;125013;-53
2021/03/06 21:22:01;;;;;;;0.80;0.80;;;;;;;0.09;50.63;97846.28;299395;205;63005;-58
2021/03/06 21:27:03;;;;;;;0.80;0.80;;;;;;;0.05;49.85;97845.03;299395;216;63009;-57
2021/03/06 21:32:05;;;;;;;0.90;0.90;;;;;;;-0.14;50.84;97847.47;299395;202;63012;-54
2021/03/06 21:37:06;;;;;;;0.80;0.80;;;;;;;-0.22;51.18;97844.16;299395;205;63009;-54
2021/03/06 21:42:08;;;;;;;0.80;0.80;;;;;;;-0.15;50.44;97834.34;299395;390;63005;-56
2021/03/06 21:47:09;;;;;;;0.90;0.90;;;;;;;-0.19;51.53;97847.25;299395;202;63009;-57
2021/03/06 21:52:10;;;;;;;0.90;0.90;;;;;;;-0.17;51.11;97844.37;299395;299;63005;-57
2021/03/06 21:57:11;;;;;;;0.80;0.80;;;;;;;-0.15;50.77;97851.16;299395;204;63009;-57
2021/03/06 22:02:12;;;;;;;0.80;0.80;;;;;;;-0.21;51.08;97838.63;299395;227;63004;-57
2021/03/06 22:07:15;;;;;;;0.90;0.90;;;;;;;-0.22;50.52;97839.66;299395;205;63009;-58
2021/03/06 22:12:16;;;;;;;0.90;0.90;;;;;;;-0.22;50.42;97834.31;299395;221;63005;-54
2021/03/06 22:17:17;;;;;;;0.82;0.82;;;;;;;-0.17;49.96;97831.88;299395;218;63008;-57
2021/03/06 22:22:21;;;;;;;0.80;0.80;;;;;;;-0.21;50.50;97835.13;299395;256;63004;-54
2021/03/06 22:27:22;;;;;;;0.90;0.90;;;;;;;-0.27;50.31;97831.44;299417;219;63009;-57
2021/03/06 22:32:23;;;;;;;0.80;0.80;;;;;;;-0.34;51.29;97825.25;299373;205;63004;-57
2021/03/06 22:37:24;;;;;;;0.90;0.90;;;;;;;-0.44;51.60;97819.50;299395;204;63009;-54
2021/03/06 22:42:25;;;;;;;0.90;0.90;;;;;;;-0.56;51.90;97823.75;299395;210;63005;-57
2021/03/06 22:47:30;;;;;;;0.80;0.80;;;;;;;-0.60;52.50;97815.31;299395;286;63008;-58
2021/03/06 22:52:31;;;;;;;0.80;0.80;;;;;;;-0.71;52.37;97814.06;299395;395;63004;-57
2021/03/06 22:57:35;;;;;;;0.90;0.90;;;;;;;-0.67;52.38;97799.31;299395;203;63009;-57
2021/03/06 23:02:36;;;;;;;0.90;0.90;;;;;;;-0.72;52.73;97801.78;299395;198;63004;-58
2021/03/06 23:07:37;;;;;;;0.80;0.80;;;;;;;-0.81;52.56;97802.94;299395;225;63009;-57
2021/03/06 23:12:38;;;;;;;0.90;0.90;;;;;;;-0.87;53.76;97801.06;299395;230;63005;-58
2021/03/06 23:17:42;;;;;;;0.80;0.80;;;;;;;-0.88;53.41;97796.78;299396;196;63008;-57
2021/03/06 23:22:49;;;;;;;0.90;0.90;;;;;;;-0.93;53.64;97795.72;299396;291;63004;-57
2021/03/06 23:27:50;;;;;;;0.90;0.90;;;;;;;-0.99;53.51;97789.31;299396;243;63009;-57
2021/03/06 23:32:51;;;;;;;0.90;0.90;;;;;;;-0.96;53.86;97788.94;299396;290;63005;-57
2021/03/06 23:37:53;;;;;;;0.80;0.80;;;;;;;-0.99;54.31;97792.00;299396;211;63009;-57
2021/03/06 23:42:55;;;;;;;0.80;0.80;;;;;;;-1.12;54.55;97790.09;299396;245;63005;-57
2021/03/06 23:47:57;;;;;;;0.90;0.90;;;;;;;-1.08;54.56;97786.03;299396;197;63009;-56
2021/03/06 23:52:59;;;;;;;0.90;0.90;;;;;;;-1.08;54.39;97785.22;299396;202;63004;-58
2021/03/06 23:58:00;;;;;;;0.90;0.90;;;;;;;-1.21;54.53;97779.81;299396;224;63009;-56
